Time;durP1;ratioP1;P1;durP2;ratioP2;P2;SDS_P1;SDS_P2;PMS_P1;PMS_P2;Temp;Humidity;BMP_temperature;BMP_pressure;BME280_temperature;BME280_humidity;BME280_pressure;Samples;Min_cycle;Max_cycle;Signal;HPM_P1;HPM_P2
2021/03/08 00:00:22;;;;;;;16.33;3.05;;;4.10;99.90;;;;;;4711115;30;20526;-83
2021/03/08 00:02:49;;;;;;;18.40;3.25;;;3.70;99.90;;;;;;4711244;30;20053;-82
2021/03/08 00:05:16;;;;;;;15.95;3.13;;;3.80;99.90;;;;;;4711814;30;20048;-83
2021/03/08 00:07:44;;;;;;;17.30;3.50;;;4.10;99.90;;;;;;4713522;30;20554;-83
2021/03/08 00:10:11;;;;;;;19.50;3.80;;;3.70;99.90;;;;;;4715939;30;20077;-83
2021/03/08 00:12:37;;;;;;;16.40;3.30;;;3.70;99.90;;;;;;4714006;30;20061;-82
2021/03/08 00:15:04;;;;;;;20.92;3.55;;;3.70;99.90;;;;;;4711132;30;20037;-83
2021/03/08 00:17:30;;;;;;;22.65;3.35;;;3.70;99.90;;;;;;4709963;30;20076;-83
2021/03/08 00:19:56;;;;;;;21.80;3.65;;;3.70;99.90;;;;;;4717629;30;20041;-83
2021/03/08 00:22:22;;;;;;;26.30;3.58;;;3.70;99.90;;;;;;4714245;30;20057;-83
2021/03/08 00:24:48;;;;;;;16.20;3.53;;;4.10;99.90;;;;;;4719254;30;20386;-83
2021/03/08 00:27:13;;;;;;;15.25;3.72;;;4.50;99.90;;;;;;4711258;30;20398;-83
2021/03/08 00:29:39;;;;;;;21.23;3.40;;;3.80;99.90;;;;;;4712755;30;20045;-82
2021/03/08 00:32:07;;;;;;;17.75;3.60;;;3.70;99.90;;;;;;4712118;30;20068;-83
2021/03/08 00:34:34;;;;;;;20.20;3.58;;;3.80;99.90;;;;;;4718647;30;20605;-82
2021/03/08 00:37:01;;;;;;;15.50;3.25;;;3.90;99.90;;;;;;4696744;30;20053;-83
2021/03/08 00:39:26;;;;;;;19.50;3.30;;;3.90;99.90;;;;;;4717112;30;20537;-83
2021/03/08 00:41:52;;;;;;;20.55;3.75;;;3.90;99.90;;;;;;4716446;30;20077;-83
2021/03/08 00:44:18;;;;;;;19.65;3.45;;;3.90;99.90;;;;;;4717751;30;20467;-82
2021/03/08 00:46:44;;;;;;;17.38;3.40;;;3.90;99.90;;;;;;4717745;30;20053;-82
2021/03/08 00:49:10;;;;;;;13.93;3.10;;;4.20;99.90;;;;;;4719625;30;20045;-82
2021/03/08 00:51:35;;;;;;;26.27;3.63;;;3.80;99.90;;;;;;4709383;30;20049;-82
2021/03/08 00:54:01;;;;;;;22.30;3.88;;;3.70;99.90;;;;;;4723027;30;20068;-81
2021/03/08 00:56:27;;;;;;;17.80;3.35;;;3.70;99.90;;;;;;4713959;30;20041;-82
2021/03/08 00:58:53;;;;;;;19.90;3.50;;;3.90;99.90;;;;;;4712212;30;20211;-83
2021/03/08 01:01:18;;;;;;;28.05;3.42;;;3.80;99.90;;;;;;4723887;30;20073;-82
2021/03/08 01:03:44;;;;;;;26.98;4.05;;;3.70;99.90;;;;;;4712774;30;20382;-81
2021/03/08 01:06:10;;;;;;;20.60;3.65;;;4.50;99.90;;;;;;4690667;30;20057;-82
2021/03/08 01:08:36;;;;;;;19.25;3.33;;;3.80;99.90;;;;;;4711262;30;20049;-82
2021/03/08 01:11:02;;;;;;;19.50;3.42;;;3.60;99.90;;;;;;4716283;30;20048;-82
2021/03/08 01:13:28;;;;;;;21.88;3.08;;;3.90;99.90;;;;;;4703986;30;20085;-82
2021/03/08 01:15:54;;;;;;;29.13;3.70;;;3.60;99.90;;;;;;4707598;30;20114;-84
2021/03/08 01:18:20;;;;;;;24.67;3.38;;;3.90;99.90;;;;;;4695662;30;20049;-81
2021/03/08 01:20:47;;;;;;;16.08;3.25;;;3.70;99.90;;;;;;4706661;30;20061;-81
2021/03/08 01:23:13;;;;;;;14.88;2.85;;;3.60;99.90;;;;;;4707042;30;20061;-82
2021/03/08 01:25:39;;;;;;;15.90;2.15;;;3.60;99.90;;;;;;4715139;30;20060;-81
2021/03/08 01:28:06;;;;;;;22.70;2.90;;;3.70;99.90;;;;;;4714893;30;20052;-82
2021/03/08 01:30:35;;;;;;;17.20;2.47;;;3.60;99.90;;;;;;4712431;30;20065;-82
2021/03/08 01:33:02;;;;;;;22.33;2.97;;;3.70;99.90;;;;;;4708754;30;20084;-82
2021/03/08 01:35:29;;;;;;;17.27;2.35;;;3.60;99.90;;;;;;4717342;30;20049;-82
2021/03/08 01:37:54;;;;;;;20.65;2.88;;;3.60;99.90;;;;;;4711349;30;20049;-84
2021/03/08 01:40:23;;;;;;;27.60;2.90;;;3.90;99.90;;;;;;4711021;30;20115;-82
2021/03/08 01:42:48;;;;;;;21.13;3.05;;;3.70;99.90;;;;;;4717311;30;20106;-82
2021/03/08 01:45:16;;;;;;;18.05;3.47;;;3.50;99.90;;;;;;4707420;30;20498;-82
2021/03/08 01:47:45;;;;;;;20.35;3.40;;;3.60;99.90;;;;;;4712117;30;20053;-82
2021/03/08 01:50:23;;;;;;;19.55;3.30;;;3.60;99.90;;;;;;4713312;30;20048;-82
2021/03/08 01:52:51;;;;;;;19.98;3.17;;;3.60;99.90;;;;;;4693857;30;20584;-82
2021/03/08 01:55:17;;;;;;;26.35;2.92;;;3.70;99.90;;;;;;4710584;30;20351;-82
2021/03/08 01:57:43;;;;;;;14.68;2.60;;;3.60;99.90;;;;;;4710433;30;20487;-82
2021/03/08 02:00:09;;;;;;;24.73;3.53;;;3.60;99.90;;;;;;4715110;30;20056;-82
2021/03/08 02:02:35;;;;;;;18.00;3.17;;;3.60;99.90;;;;;;4711294;30;20041;-81
2021/03/08 02:05:05;;;;;;;14.63;2.35;;;3.60;99.90;;;;;;4709890;30;20382;-82
2021/03/08 02:07:31;;;;;;;19.83;2.92;;;3.50;99.90;;;;;;4711192;30;20151;-82
2021/03/08 02:09:57;;;;;;;17.88;2.80;;;3.60;99.90;;;;;;4698561;30;20102;-83
2021/03/08 02:12:33;;;;;;;15.52;2.50;;;3.50;99.90;;;;;;4711425;30;20053;-81
2021/03/08 02:15:17;;;;;;;18.80;2.97;;;3.50;99.90;;;;;;4716371;30;20072;-82
2021/03/08 02:18:02;;;;;;;12.75;2.88;;;3.50;99.90;;;;;;4711765;30;20045;-81
2021/03/08 02:20:53;;;;;;;26.95;3.25;;;3.50;99.90;;;;;;4706487;30;20066;-82
2021/03/08 02:23:40;;;;;;;21.98;3.08;;;3.50;99.90;;;;;;4721788;30;20215;-81
2021/03/08 02:26:27;;;;;;;24.45;3.63;;;3.50;99.90;;;;;;4720384;30;20132;-82
2021/03/08 02:29:02;;;;;;;16.63;3.15;;;3.60;99.90;;;;;;4704730;30;20170;-84
2021/03/08 02:31:31;;;;;;;35.05;3.78;;;3.50;99.90;;;;;;4711286;30;20148;-82
2021/03/08 02:34:04;;;;;;;22.38;4.05;;;4.10;99.90;;;;;;4729662;30;20053;-83
2021/03/08 02:36:35;;;;;;;23.48;3.83;;;3.80;99.90;;;;;;4710977;30;20065;-82
2021/03/08 02:39:15;;;;;;;26.67;3.80;;;3.40;99.90;;;;;;4689780;30;20061;-82
2021/03/08 02:41:44;;;;;;;22.83;3.80;;;3.40;99.90;;;;;;4711555;30;20049;-82
2021/03/08 02:44:13;;;;;;;19.85;3.88;;;3.40;99.90;;;;;;4709493;30;20795;-81
2021/03/08 02:46:41;;;;;;;21.92;4.35;;;3.40;99.90;;;;;;4707194;30;20546;-82
2021/03/08 02:49:14;;;;;;;25.30;3.63;;;3.40;99.90;;;;;;4712107;30;20418;-82
2021/03/08 02:51:43;;;;;;;18.83;3.13;;;3.60;99.90;;;;;;4714703;30;20119;-82
2021/03/08 02:54:11;;;;;;;26.38;3.55;;;3.50;99.90;;;;;;4704731;30;20065;-81
2021/03/08 02:56:41;;;;;;;17.65;3.30;;;3.50;99.90;;;;;;4716816;30;20053;-82
2021/03/08 02:59:08;;;;;;;20.95;3.30;;;3.70;99.90;;;;;;4710686;30;20049;-81
2021/03/08 03:01:36;;;;;;;18.55;3.90;;;3.60;99.90;;;;;;4717587;30;20053;-82
2021/03/08 03:04:03;;;;;;;24.13;3.55;;;3.60;99.90;;;;;;4713781;30;20130;-81
2021/03/08 03:06:34;;;;;;;23.75;3.78;;;3.50;99.90;;;;;;4714950;30;20602;-82
2021/03/08 03:09:05;;;;;;;17.33;3.08;;;3.80;99.90;;;;;;4715307;30;20052;-82
2021/03/08 03:11:33;;;;;;;25.50;3.63;;;4.10;99.90;;;;;;4713142;30;20045;-81
2021/03/08 03:14:03;;;;;;;24.30;3.25;;;3.50;99.90;;;;;;4722452;30;20123;-82
2021/03/08 03:16:33;;;;;;;21.90;3.53;;;3.50;99.90;;;;;;4726279;30;20126;-82
2021/03/08 03:19:01;;;;;;;28.98;3.58;;;3.40;99.90;;;;;;4709087;30;20053;-82
2021/03/08 03:21:33;;;;;;;27.27;3.50;;;3.40;99.90;;;;;;4722864;30;20080;-82
2021/03/08 03:24:00;;;;;;;26.88;3.80;;;3.60;99.90;;;;;;4716012;30;20048;-81
2021/03/08 03:26:28;;;;;;;26.45;3.17;;;3.30;99.90;;;;;;4723127;30;20068;-82
2021/03/08 03:28:55;;;;;;;25.75;3.72;;;3.30;99.90;;;;;;4716318;30;20084;-84
2021/03/08 03:31:23;;;;;;;22.15;3.75;;;3.40;99.90;;;;;;4716420;30;20049;-82
2021/03/08 03:33:49;;;;;;;24.90;3.85;;;3.70;99.90;;;;;;4717530;30;20509;-83
2021/03/08 03:36:16;;;;;;;21.23;3.47;;;3.40;99.90;;;;;;4719988;30;20065;-82
2021/03/08 03:38:44;;;;;;;19.40;3.42;;;3.40;99.90;;;;;;4716721;30;20044;-81
2021/03/08 03:41:10;;;;;;;34.65;4.00;;;3.60;99.90;;;;;;4721158;30;20601;-82
2021/03/08 03:43:36;;;;;;;29.45;3.88;;;3.40;99.90;;;;;;4710850;30;20045;-82
2021/03/08 03:46:03;;;;;;;26.45;4.13;;;3.70;99.90;;;;;;4717900;30;20049;-81
2021/03/08 03:48:31;;;;;;;28.10;4.10;;;3.50;99.90;;;;;;4714759;30;20062;-82
2021/03/08 03:50:59;;;;;;;26.45;3.45;;;3.40;99.90;;;;;;4718562;30;20059;-83
2021/03/08 03:53:25;;;;;;;25.35;3.15;;;3.40;99.90;;;;;;4711114;30;20144;-82
2021/03/08 03:55:51;;;;;;;16.70;3.40;;;3.40;99.90;;;;;;4714588;30;20549;-82
2021/03/08 03:58:23;;;;;;;19.85;3.40;;;3.40;99.90;;;;;;4717544;30;20045;-82
2021/03/08 04:01:16;;;;;;;26.42;3.65;;;3.40;99.90;;;;;;4714833;30;20155;-83
2021/03/08 04:04:04;;;;;;;21.77;3.33;;;3.60;99.90;;;;;;4712152;30;20064;-82
2021/03/08 04:06:40;;;;;;;23.02;3.47;;;3.40;99.90;;;;;;4713940;30;20048;-81
2021/03/08 04:09:08;;;;;;;21.33;3.30;;;3.60;99.90;;;;;;4717979;30;20053;-82
2021/03/08 04:11:37;;;;;;;27.23;3.67;;;3.40;99.90;;;;;;4718902;30;20140;-81
2021/03/08 04:14:07;;;;;;;24.50;3.45;;;3.40;99.90;;;;;;4716244;30;20072;-83
2021/03/08 04:16:40;;;;;;;27.42;3.75;;;3.60;99.90;;;;;;4708548;30;20157;-82
2021/03/08 04:19:07;;;;;;;24.80;4.00;;;3.50;99.90;;;;;;4712966;30;20071;-82
2021/03/08 04:21:39;;;;;;;26.63;4.20;;;3.40;99.90;;;;;;4717972;30;20057;-82
2021/03/08 04:24:07;;;;;;;29.05;3.92;;;3.40;99.90;;;;;;4708761;30;20068;-82
2021/03/08 04:26:38;;;;;;;22.27;3.60;;;3.40;99.90;;;;;;4716273;30;20076;-81
2021/03/08 04:29:05;;;;;;;31.00;4.47;;;3.40;99.90;;;;;;4717973;30;20096;-82
2021/03/08 04:31:32;;;;;;;19.95;3.80;;;3.50;99.90;;;;;;4714411;30;20140;-81
2021/03/08 04:33:59;;;;;;;21.23;3.70;;;3.70;99.90;;;;;;4711279;30;20536;-82
2021/03/08 04:36:26;;;;;;;30.20;4.20;;;3.40;99.90;;;;;;4713266;30;20056;-83
2021/03/08 04:38:53;;;;;;;18.25;3.38;;;3.50;99.90;;;;;;4698909;30;20044;-85
2021/03/08 04:41:19;;;;;;;24.25;4.03;;;3.40;99.90;;;;;;4716906;30;20414;-82
2021/03/08 04:43:46;;;;;;;21.30;3.83;;;3.60;99.90;;;;;;4716545;30;20041;-83
2021/03/08 04:46:13;;;;;;;19.63;3.65;;;3.40;99.90;;;;;;4710391;30;20041;-82
2021/03/08 04:48:39;;;;;;;25.15;4.10;;;3.40;99.90;;;;;;4719499;30;20140;-81
2021/03/08 04:51:08;;;;;;;23.63;3.92;;;3.40;99.90;;;;;;4711003;30;20045;-82
2021/03/08 04:53:35;;;;;;;30.63;4.18;;;3.30;99.90;;;;;;4711023;30;20060;-82
2021/03/08 04:56:03;;;;;;;25.52;4.28;;;3.60;99.90;;;;;;4711227;30;20064;-82
2021/03/08 04:58:30;;;;;;;24.17;4.05;;;3.40;99.90;;;;;;4712337;30;20041;-82
2021/03/08 05:00:57;;;;;;;22.98;3.97;;;3.30;99.90;;;;;;4711457;30;20044;-83
2021/03/08 05:03:25;;;;;;;22.80;3.28;;;3.60;99.90;;;;;;4717236;30;20712;-82
2021/03/08 05:05:55;;;;;;;23.13;3.53;;;3.40;99.90;;;;;;4706129;30;20502;-84
2021/03/08 05:08:24;;;;;;;38.00;4.25;;;3.30;99.90;;;;;;4714949;30;20049;-81
2021/03/08 05:10:51;;;;;;;21.63;3.78;;;3.30;99.90;;;;;;4706814;30;20124;-84
2021/03/08 05:13:19;;;;;;;29.20;4.28;;;3.30;99.90;;;;;;4714937;30;20127;-82
2021/03/08 05:15:45;;;;;;;29.33;4.63;;;3.70;99.90;;;;;;4711630;30;20419;-82
2021/03/08 05:18:12;;;;;;;31.85;4.63;;;3.40;99.90;;;;;;4717956;30;20132;-82
2021/03/08 05:20:38;;;;;;;29.10;3.85;;;3.40;99.90;;;;;;4717392;30;20056;-82
2021/03/08 05:23:05;;;;;;;25.33;3.88;;;3.40;99.90;;;;;;4713193;30;20074;-82
2021/03/08 05:25:33;;;;;;;31.50;4.47;;;3.40;99.90;;;;;;4725205;30;20486;-82
2021/03/08 05:28:00;;;;;;;29.05;4.22;;;3.40;99.90;;;;;;4717323;30;20052;-82
2021/03/08 05:30:28;;;;;;;24.67;3.75;;;3.50;99.90;;;;;;4709632;30;20080;-82
2021/03/08 05:33:27;;;;;;;20.88;3.80;;;3.30;99.90;;;;;;4712466;30;20121;-84
2021/03/08 05:35:55;;;;;;;27.40;4.20;;;3.30;99.90;;;;;;4705829;30;20049;-85
2021/03/08 05:38:23;;;;;;;25.83;4.47;;;3.20;99.90;;;;;;4711564;30;20073;-83
2021/03/08 05:41:12;;;;;;;28.30;3.83;;;3.20;99.90;;;;;;4711167;30;20052;-84
2021/03/08 05:43:40;;;;;;;22.50;4.00;;;3.20;99.90;;;;;;4718531;30;20239;-83
2021/03/08 05:46:15;;;;;;;22.40;4.18;;;3.50;99.90;;;;;;4716687;30;20041;-82
2021/03/08 05:48:47;;;;;;;21.40;3.88;;;3.20;99.90;;;;;;4716376;30;20604;-81
2021/03/08 05:51:31;;;;;;;14.70;3.33;;;3.10;99.90;;;;;;4709164;30;20501;-80
2021/03/08 05:54:39;;;;;;;22.85;4.13;;;3.10;99.90;;;;;;4719156;30;20049;-83
2021/03/08 05:57:39;;;;;;;29.73;4.20;;;3.00;99.90;;;;;;4656595;30;20225;-81
2021/03/08 06:00:34;;;;;;;25.85;4.35;;;2.90;99.90;;;;;;4657367;30;20046;-81
2021/03/08 06:03:30;;;;;;;29.67;4.25;;;3.00;99.90;;;;;;4652695;30;20062;-82
2021/03/08 06:06:32;;;;;;;26.55;4.68;;;2.90;99.90;;;;;;4660308;30;20120;-83
2021/03/08 06:09:10;;;;;;;23.05;3.70;;;2.90;99.90;;;;;;4655251;30;20427;-82
2021/03/08 06:11:37;;;;;;;20.73;4.28;;;2.90;99.90;;;;;;4642526;30;20069;-81
2021/03/08 06:14:07;;;;;;;20.98;4.45;;;2.90;99.90;;;;;;4661278;30;20121;-81
2021/03/08 06:16:35;;;;;;;20.25;3.80;;;2.90;99.90;;;;;;4649092;30;20050;-82
2021/03/08 06:19:03;;;;;;;22.75;4.63;;;2.90;99.90;;;;;;4669341;30;20522;-82
2021/03/08 06:21:32;;;;;;;20.85;4.05;;;2.90;99.90;;;;;;4663926;30;20066;-80
2021/03/08 06:23:59;;;;;;;20.80;3.58;;;2.80;99.90;;;;;;4657936;30;20042;-80
2021/03/08 06:26:26;;;;;;;16.83;3.60;;;2.90;99.90;;;;;;4650313;30;21962;-79
2021/03/08 06:28:52;;;;;;;18.90;3.65;;;2.90;99.90;;;;;;4663967;30;20573;-80
2021/03/08 06:31:19;;;;;;;22.65;4.05;;;2.90;99.90;;;;;;4650155;30;20825;-78
2021/03/08 06:33:45;;;;;;;18.30;3.45;;;2.90;99.90;;;;;;4684214;30;20061;-80
2021/03/08 06:36:11;;;;;;;20.58;4.18;;;2.90;99.90;;;;;;4727166;30;20064;-82
2021/03/08 06:38:38;;;;;;;18.50;3.83;;;3.00;99.90;;;;;;4717226;30;20489;-81
2021/03/08 06:41:09;;;;;;;16.42;4.18;;;2.80;99.90;;;;;;4716641;30;20189;-82
2021/03/08 06:43:39;;;;;;;19.60;3.45;;;2.80;99.90;;;;;;4712981;30;20055;-80
2021/03/08 06:46:05;;;;;;;14.23;3.13;;;2.80;99.90;;;;;;4711804;30;20077;-81
2021/03/08 06:48:31;;;;;;;20.02;4.00;;;2.70;99.90;;;;;;4716618;30;20056;-82
2021/03/08 06:51:17;;;;;;;21.60;4.47;;;2.70;99.90;;;;;;4696655;30;20383;-80
2021/03/08 06:53:45;;;;;;;15.57;3.55;;;2.70;99.90;;;;;;4711623;30;20057;-81
2021/03/08 06:56:22;;;;;;;29.92;3.97;;;2.70;99.90;;;;;;4699437;30;20059;-81
2021/03/08 06:59:08;;;;;;;21.48;3.70;;;2.70;99.90;;;;;;4718746;30;20041;-80
2021/03/08 07:01:36;;;;;;;21.98;4.25;;;2.70;99.90;;;;;;4713589;30;20064;-78
2021/03/08 07:04:09;;;;;;;22.20;4.18;;;2.70;99.90;;;;;;4719965;30;20094;-78
2021/03/08 07:06:35;;;;;;;14.50;3.17;;;2.60;99.90;;;;;;4715093;30;20045;-79
2021/03/08 07:09:05;;;;;;;33.35;4.18;;;2.70;99.90;;;;;;4714303;30;20052;-79
2021/03/08 07:11:31;;;;;;;26.45;3.72;;;2.60;99.90;;;;;;4714269;30;20052;-81
2021/03/08 07:13:58;;;;;;;23.90;3.88;;;2.70;99.90;;;;;;4714584;30;20052;-80
2021/03/08 07:16:38;;;;;;;21.13;3.67;;;2.70;99.90;;;;;;4714632;30;20088;-80
2021/03/08 07:19:06;;;;;;;21.70;3.63;;;2.60;99.90;;;;;;4721803;30;20053;-81
2021/03/08 07:21:32;;;;;;;18.60;3.55;;;2.60;99.90;;;;;;4734146;30;20124;-81
2021/03/08 07:24:12;;;;;;;18.38;3.72;;;2.60;99.90;;;;;;4714468;30;20044;-81
2021/03/08 07:26:47;;;;;;;20.33;3.75;;;2.70;99.90;;;;;;4715059;30;20048;-82
2021/03/08 07:29:14;;;;;;;15.52;3.25;;;2.70;99.90;;;;;;4699462;30;20041;-80
2021/03/08 07:31:43;;;;;;;19.65;3.47;;;2.70;99.90;;;;;;4716901;30;20119;-79
2021/03/08 07:34:10;;;;;;;16.65;3.30;;;2.70;99.90;;;;;;4714408;30;20050;-79
2021/03/08 07:36:37;;;;;;;23.33;4.03;;;2.80;99.90;;;;;;4720923;30;20554;-82
2021/03/08 07:39:18;;;;;;;21.40;3.13;;;2.80;99.90;;;;;;4714272;30;20045;-82
2021/03/08 07:42:09;;;;;;;18.08;3.42;;;2.90;99.90;;;;;;4713839;30;20080;-79
2021/03/08 07:44:51;;;;;;;21.30;3.42;;;2.90;99.90;;;;;;4713573;30;20056;-80
2021/03/08 07:47:19;;;;;;;28.90;3.22;;;2.90;99.90;;;;;;4703273;30;20122;-81
2021/03/08 07:49:45;;;;;;;27.45;3.42;;;3.00;99.90;;;;;;4712951;30;20052;-81
2021/03/08 07:52:13;;;;;;;22.58;3.60;;;3.00;99.90;;;;;;4697921;30;20057;-82
2021/03/08 07:54:55;;;;;;;25.90;3.13;;;3.10;99.90;;;;;;4702125;30;20053;-83
2021/03/08 07:57:22;;;;;;;19.83;2.88;;;3.10;99.90;;;;;;4690171;30;20161;-81
2021/03/08 07:59:48;;;;;;;21.02;2.78;;;3.20;99.90;;;;;;4711543;30;20056;-80
2021/03/08 08:02:14;;;;;;;23.52;3.35;;;3.30;99.90;;;;;;4696600;30;20050;-81
2021/03/08 08:04:40;;;;;;;25.30;2.97;;;3.50;99.90;;;;;;4686646;30;20161;-82
2021/03/08 08:07:07;;;;;;;20.33;3.33;;;3.80;99.90;;;;;;4716980;30;20640;-82
2021/03/08 08:09:40;;;;;;;26.33;3.40;;;3.40;99.90;;;;;;4696199;30;20065;-83
2021/03/08 08:12:17;;;;;;;20.90;3.05;;;3.50;99.90;;;;;;4703560;30;20568;-83
2021/03/08 08:14:47;;;;;;;25.08;3.10;;;3.60;99.90;;;;;;4707802;30;20061;-82
2021/03/08 08:17:21;;;;;;;18.55;2.97;;;3.60;99.90;;;;;;4711218;30;20049;-82
2021/03/08 08:19:50;;;;;;;16.48;2.83;;;3.70;99.90;;;;;;4704468;30;20069;-80
2021/03/08 08:22:25;;;;;;;27.25;3.80;;;3.80;99.90;;;;;;4709862;30;20526;-82
2021/03/08 08:25:06;;;;;;;;;;;;;;;;;;;;;
2021/03/08 08:27:36;;;;;;;18.60;3.85;;;3.70;99.90;;;;;;4711577;30;19930;-79
2021/03/08 08:30:04;;;;;;;19.30;3.72;;;3.90;99.90;;;;;;4716809;30;20074;-81
2021/03/08 08:32:53;;;;;;;26.25;3.70;;;3.80;99.90;;;;;;4712193;30;20122;-81
2021/03/08 08:35:25;;;;;;;21.58;4.63;;;3.80;99.90;;;;;;4710232;30;20041;-82
2021/03/08 08:38:09;;;;;;;27.00;4.45;;;3.90;99.90;;;;;;4725713;30;20069;-82
2021/03/08 08:40:40;;;;;;;21.27;4.10;;;4.00;99.90;;;;;;4698205;30;20615;-81
2021/03/08 08:43:14;;;;;;;21.95;4.20;;;4.10;99.90;;;;;;4712536;30;20314;-82
2021/03/08 08:45:52;;;;;;;22.02;4.30;;;4.10;99.90;;;;;;4714947;30;20106;-82
2021/03/08 08:48:20;;;;;;;21.90;4.28;;;4.30;99.90;;;;;;4712058;30;20418;-82
2021/03/08 08:50:52;;;;;;;23.00;4.45;;;4.50;99.90;;;;;;4697796;30;20061;-82
2021/03/08 08:53:30;;;;;;;19.88;3.75;;;4.70;99.90;;;;;;4712461;30;20088;-82
2021/03/08 08:55:57;;;;;;;20.70;4.40;;;4.80;99.90;;;;;;4719263;30;20056;-83
2021/03/08 08:58:28;;;;;;;23.02;4.38;;;4.90;99.90;;;;;;4717063;30;20292;-82
2021/03/08 09:03:56;;;;;;;17.80;3.35;;;5.30;99.90;;;;;;4717019;30;20049;-82
2021/03/08 09:06:40;;;;;;;14.02;3.53;;;5.30;99.90;;;;;;4720405;30;20120;-81
2021/03/08 09:09:07;;;;;;;23.67;4.40;;;5.50;99.90;;;;;;4723868;30;20132;-81
2021/03/08 09:11:56;;;;;;;17.35;3.50;;;5.40;99.90;;;;;;4703868;30;20418;-81
2021/03/08 09:14:26;;;;;;;18.48;3.55;;;5.60;99.90;;;;;;4711136;30;20067;-81
2021/03/08 09:17:10;;;;;;;13.95;3.47;;;5.50;99.90;;;;;;4697398;30;20053;-82
2021/03/08 09:19:36;;;;;;;16.60;3.28;;;5.50;99.90;;;;;;4709390;30;20064;-82
2021/03/08 09:22:20;;;;;;;16.00;3.30;;;5.60;99.90;;;;;;4714693;30;20128;-82
2021/03/08 09:24:47;;;;;;;15.63;3.60;;;5.80;99.90;;;;;;4729002;30;20135;-81
2021/03/08 09:27:35;;;;;;;20.58;3.45;;;5.60;99.90;;;;;;4694595;30;20049;-81
2021/03/08 09:30:03;;;;;;;16.80;3.88;;;5.80;99.90;;;;;;4711989;30;20064;-81
2021/03/08 09:32:29;;;;;;;15.48;3.88;;;5.90;99.90;;;;;;4709490;30;20059;-81
2021/03/08 09:35:05;;;;;;;22.77;4.10;;;6.00;99.90;;;;;;4695579;30;20060;-82
2021/03/08 09:37:31;;;;;;;14.68;3.80;;;6.10;99.90;;;;;;4721137;30;20520;-82
2021/03/08 09:39:59;;;;;;;19.83;3.30;;;6.00;99.90;;;;;;4711517;30;20044;-83
2021/03/08 09:42:32;;;;;;;16.67;3.22;;;6.10;99.90;;;;;;4711450;30;20061;-81
2021/03/08 09:44:57;;;;;;;11.30;3.13;;;6.00;99.90;;;;;;4712469;30;20098;-83
2021/03/08 09:47:38;;;;;;;27.65;4.35;;;5.90;99.90;;;;;;4706757;30;20264;-82
2021/03/08 09:50:04;;;;;;;16.98;4.30;;;6.10;99.90;;;;;;4712332;30;20915;-83
2021/03/08 09:52:37;;;;;;;13.65;3.83;;;6.00;99.90;;;;;;4710940;30;20068;-83
2021/03/08 09:55:04;;;;;;;17.80;3.58;;;6.10;99.90;;;;;;4711920;30;20446;-83
2021/03/08 09:57:39;;;;;;;23.08;4.38;;;6.00;99.90;;;;;;4698765;30;20113;-82
2021/03/08 10:00:14;;;;;;;19.55;3.60;;;6.10;99.90;;;;;;4711777;30;20073;-83
2021/03/08 10:02:41;;;;;;;12.07;2.65;;;6.30;99.90;;;;;;4710678;30;20041;-83
2021/03/08 10:05:09;;;;;;;22.40;3.88;;;6.50;99.90;;;;;;4712324;30;20151;-83
2021/03/08 10:07:55;;;;;;;13.02;3.15;;;6.30;99.90;;;;;;4708442;30;20590;-81
2021/03/08 10:10:24;;;;;;;16.38;3.30;;;6.40;99.90;;;;;;4712053;30;20166;-83
2021/03/08 10:13:01;;;;;;;14.25;2.92;;;6.30;99.90;;;;;;4716504;30;20049;-83
2021/03/08 10:15:37;;;;;;;17.90;2.55;;;6.50;99.90;;;;;;4719468;30;20045;-84
2021/03/08 10:18:03;;;;;;;14.55;2.83;;;6.70;99.90;;;;;;4732659;30;20041;-83
2021/03/08 10:20:31;;;;;;;14.73;2.83;;;6.80;99.70;;;;;;4717175;30;20053;-80
2021/03/08 10:22:57;;;;;;;15.68;2.92;;;6.90;99.90;;;;;;4727014;30;20065;-82
2021/03/08 10:25:34;;;;;;;11.23;2.72;;;7.00;99.90;;;;;;4699707;30;20135;-80
2021/03/08 10:28:04;;;;;;;12.18;3.05;;;7.10;99.90;;;;;;4728392;30;20061;-83
2021/03/08 10:30:35;;;;;;;12.23;3.42;;;7.10;99.90;;;;;;4728560;30;20077;-84
2021/03/08 10:33:06;;;;;;;13.40;3.03;;;7.10;99.90;;;;;;4714437;30;20877;-80
2021/03/08 10:35:43;;;;;;;12.27;2.45;;;7.20;99.90;;;;;;4700197;30;20049;-82
2021/03/08 10:38:09;;;;;;;16.00;3.20;;;7.10;99.90;;;;;;4713362;30;20053;-84
2021/03/08 10:40:36;;;;;;;15.48;2.83;;;7.30;99.90;;;;;;4699513;30;20063;-82
2021/03/08 10:43:10;;;;;;;18.65;3.05;;;7.40;99.90;;;;;;4713791;30;20142;-83
2021/03/08 10:45:36;;;;;;;18.92;3.28;;;7.30;99.90;;;;;;4725975;30;20061;-82
2021/03/08 10:48:06;;;;;;;16.52;3.45;;;7.40;99.90;;;;;;4717501;30;20041;-82
2021/03/08 10:50:52;;;;;;;18.98;3.78;;;7.30;99.90;;;;;;4717006;30;20091;-81
2021/03/08 10:53:19;;;;;;;17.67;4.28;;;7.50;99.90;;;;;;4722858;30;20052;-82
2021/03/08 10:55:47;;;;;;;11.30;3.40;;;7.30;99.90;;;;;;4715003;30;20509;-80
2021/03/08 10:58:14;;;;;;;13.02;3.17;;;7.50;99.90;;;;;;4697152;30;20060;-81
2021/03/08 11:00:42;;;;;;;19.30;3.40;;;7.60;99.90;;;;;;4719810;30;20060;-81
2021/03/08 11:03:34;;;;;;;18.13;3.65;;;7.90;99.90;;;;;;4714421;30;20428;-81
2021/03/08 11:06:08;;;;;;;19.98;3.33;;;7.80;99.90;;;;;;4705182;30;20065;-81
2021/03/08 11:08:37;;;;;;;10.13;3.10;;;8.00;99.90;;;;;;4715500;30;20498;-82
2021/03/08 11:11:17;;;;;;;17.25;3.78;;;8.10;99.90;;;;;;4719869;30;20045;-81
2021/03/08 11:13:43;;;;;;;14.05;3.85;;;8.30;99.90;;;;;;4733138;30;20046;-82
2021/03/08 11:16:13;;;;;;;15.23;4.43;;;8.40;99.90;;;;;;4697273;30;20325;-81
2021/03/08 11:18:40;;;;;;;11.90;3.50;;;8.20;99.50;;;;;;4717508;30;20489;-82
2021/03/08 11:21:28;;;;;;;15.90;3.70;;;8.10;99.90;;;;;;4715413;30;20045;-82
2021/03/08 11:24:12;;;;;;;16.55;3.97;;;8.20;98.70;;;;;;4693922;30;20079;-84
2021/03/08 11:26:39;;;;;;;16.70;3.53;;;8.20;99.90;;;;;;4714105;30;20067;-83
2021/03/08 11:29:05;;;;;;;11.13;3.33;;;8.10;99.90;;;;;;4715068;30;20482;-83
2021/03/08 11:31:30;;;;;;;12.70;3.70;;;8.20;99.90;;;;;;4716939;30;20053;-83
2021/03/08 11:33:56;;;;;;;18.25;3.30;;;8.00;99.50;;;;;;4713460;30;20053;-83
2021/03/08 11:36:35;;;;;;;11.80;3.75;;;7.90;99.90;;;;;;4721359;30;20083;-81
2021/03/08 11:39:06;;;;;;;21.65;4.45;;;7.90;99.90;;;;;;4719158;30;20037;-83
2021/03/08 11:41:33;;;;;;;13.25;3.58;;;8.00;99.90;;;;;;4707979;30;20060;-81
2021/03/08 11:44:00;;;;;;;15.40;3.80;;;8.10;99.90;;;;;;4719440;30;20048;-82
2021/03/08 11:46:26;;;;;;;13.27;3.22;;;8.40;99.90;;;;;;4713787;30;20112;-81
2021/03/08 11:49:04;;;;;;;11.93;3.13;;;8.40;99.90;;;;;;4714155;30;20355;-83
2021/03/08 11:51:30;;;;;;;15.55;3.60;;;8.40;98.30;;;;;;4711748;30;20155;-82
2021/03/08 11:53:57;;;;;;;12.20;3.10;;;8.40;99.90;;;;;;4716892;30;20127;-83
2021/03/08 11:56:26;;;;;;;10.02;3.17;;;8.50;99.80;;;;;;4718837;30;20064;-82
2021/03/08 11:58:54;;;;;;;19.85;3.83;;;8.70;98.70;;;;;;4719792;30;20053;-82
2021/03/08 12:01:20;;;;;;;17.80;3.35;;;8.70;99.70;;;;;;4717596;30;20485;-80
2021/03/08 12:03:46;;;;;;;14.48;3.50;;;8.60;99.10;;;;;;4725434;30;20046;-81
2021/03/08 12:06:11;;;;;;;16.38;3.75;;;8.60;99.50;;;;;;4718750;30;20140;-81
2021/03/08 12:08:37;;;;;;;13.27;3.53;;;8.60;99.90;;;;;;4713503;30;20049;-81
2021/03/08 12:11:04;;;;;;;12.32;3.80;;;8.60;99.80;;;;;;4710886;30;20065;-82
2021/03/08 12:13:30;;;;;;;18.33;3.85;;;8.40;99.90;;;;;;4702669;30;20049;-82
2021/03/08 12:15:56;;;;;;;20.48;4.20;;;8.40;99.90;;;;;;4715722;30;20099;-83
2021/03/08 12:18:21;;;;;;;14.65;3.35;;;8.50;99.90;;;;;;4711641;30;20041;-83
2021/03/08 12:20:47;;;;;;;17.63;3.45;;;8.50;99.90;;;;;;4714743;30;20552;-83
2021/03/08 12:23:13;;;;;;;13.30;3.80;;;8.70;99.50;;;;;;4716845;30;20089;-83
2021/03/08 12:25:38;;;;;;;11.07;4.07;;;8.70;99.90;;;;;;4715790;30;20052;-83
2021/03/08 12:28:04;;;;;;;14.88;4.20;;;8.70;99.90;;;;;;4713766;30;21590;-83
2021/03/08 12:30:30;;;;;;;16.13;4.00;;;8.80;99.90;;;;;;4712980;30;20519;-82
2021/03/08 12:32:56;;;;;;;15.82;3.72;;;8.60;99.90;;;;;;4699438;30;20498;-83
2021/03/08 12:35:22;;;;;;;17.35;4.45;;;8.70;99.90;;;;;;4720717;30;20517;-82
2021/03/08 12:37:48;;;;;;;16.00;3.75;;;8.40;99.90;;;;;;4719699;30;20118;-82
2021/03/08 12:40:14;;;;;;;13.30;3.50;;;8.30;99.90;;;;;;4712120;30;20044;-82
2021/03/08 12:42:40;;;;;;;13.45;3.50;;;8.20;99.90;;;;;;4713133;30;20049;-80
2021/03/08 12:45:06;;;;;;;12.80;3.83;;;8.20;99.90;;;;;;4703901;30;20490;-83
2021/03/08 12:47:32;;;;;;;10.50;3.22;;;8.20;99.90;;;;;;4717368;30;20045;-83
2021/03/08 12:49:58;;;;;;;17.10;3.80;;;8.20;99.90;;;;;;4711401;30;20078;-84
2021/03/08 12:52:24;;;;;;;22.85;4.30;;;8.20;99.90;;;;;;4711624;30;20092;-82
2021/03/08 12:54:49;;;;;;;13.23;3.80;;;8.20;99.90;;;;;;4696227;30;20509;-84
2021/03/08 12:57:15;;;;;;;19.10;4.00;;;8.10;99.90;;;;;;4713450;30;20182;-84
2021/03/08 12:59:41;;;;;;;12.82;4.05;;;8.10;99.90;;;;;;4704758;30;20053;-83
2021/03/08 13:02:07;;;;;;;17.15;4.05;;;8.30;99.90;;;;;;4694657;30;20111;-83
2021/03/08 13:04:33;;;;;;;11.13;3.33;;;8.20;99.90;;;;;;4714304;30;20522;-83
2021/03/08 13:06:59;;;;;;;15.82;3.67;;;8.20;99.90;;;;;;4714440;30;20049;-81